Portada
METAR-TAF:

METAR-TAF

Aeroports :

Hohhot, Xina

latitud: 40-49N, longitud: 111-41E, altitud: 1065 m

Observació

L'informe es va fer fa 26 minuts, a les 00:00 UTC
Vent 2 kt amb direcció variable
Temperatura 1°C
Humitat 64%
Pressió 1022 hPa
Visibilitat 10 km o més
Cel ennuvolat a una alçada de 3300 ft

METAR: ZBHH 270000Z VRB01MPS 9999 BKN033 01/M05 Q1022 NOSIG

Hora: 08:26 (00:26 UTC)

Pronòstic

L'informe es va fer fa 5 hores i 19 minuts, a les 19:07 UTC
Pronòstic vàlid del 27 a les 00 UTC al 27 a les 24 UTC
Vent 8 kt del Est/Nord-Est
Visibilitat: 2500 m
Núvols disperses a una alçada de 4000 ft
pluja, neu
Evolucionant progressivament
l' 27 a les 12 UTC al 27 a les 13 UTC
Visibilitat: 6000 m

TAF: ZBHH 261907Z 2700/2724 07004MPS 2500 -RASN SCT040 TX03/2707Z TNM06/2722Z BECMG 2712/2713 6000 NSW

Observacions i pronòstics meteorològics de més de 4000 aeroports (METAR i TAF).

Les estacions disponibles són els punts grocs i vermells al mapa.

Posi el ratolí al punt desitjat per veure el nom de l'estació.

Feu clic per veure les observacions i els pronòstics meteorològics.

Per canviar el mapa: feu clic els botons verds amb una creu de color negre per apropar; al botó verd amb un guió per allunyar la imatge; o en les fletxes verdes per a mapes adjacents.


METAR-TAF: